Time;durP1;ratioP1;P1;durP2;ratioP2;P2;SDS_P1;SDS_P2;PMS_P1;PMS_P2;Temp;Humidity;BMP_temperature;BMP_pressure;BME280_temperature;BME280_humidity;BME280_pressure;Samples;Min_cycle;Max_cycle;Signal;HPM_P1;HPM_P2
2023/07/19 00:00:47;;;;;;;0.82;0.50;;;22.50;61.80;;;;;;6219084;28;20496;-69
2023/07/19 00:03:48;;;;;;;0.50;0.40;;;22.50;61.80;;;;;;6219182;28;20536;-69
2023/07/19 00:06:49;;;;;;;0.88;0.70;;;22.50;61.80;;;;;;6218611;28;20037;-69
2023/07/19 00:09:49;;;;;;;0.63;0.63;;;22.50;61.80;;;;;;6218335;28;20164;-69
2023/07/19 00:12:50;;;;;;;0.68;0.63;;;22.50;61.80;;;;;;6218727;28;20503;-69
2023/07/19 00:15:51;;;;;;;0.60;0.43;;;22.50;61.90;;;;;;6218103;28;20042;-69
2023/07/19 00:18:51;;;;;;;0.77;0.57;;;22.50;61.80;;;;;;6218167;28;20029;-70
2023/07/19 00:21:52;;;;;;;0.77;0.60;;;22.50;61.80;;;;;;6218226;28;20057;-70
2023/07/19 00:24:52;;;;;;;0.80;0.70;;;22.50;61.80;;;;;;6218127;28;20029;-70
2023/07/19 00:27:53;;;;;;;0.85;0.68;;;22.50;61.80;;;;;;6218619;28;20030;-70
2023/07/19 00:31:02;;;;;;;0.70;0.60;;;22.50;61.80;;;;;;6218182;28;20539;-69
2023/07/19 00:34:03;;;;;;;1.00;0.70;;;22.50;61.80;;;;;;6216808;28;20045;-69
2023/07/19 00:37:03;;;;;;;0.70;0.60;;;22.50;61.80;;;;;;6218213;28;20034;-69
2023/07/19 00:40:05;;;;;;;0.80;0.60;;;22.50;61.90;;;;;;6218227;28;20392;-69
2023/07/19 00:43:14;;;;;;;1.05;0.47;;;22.50;61.80;;;;;;6218683;28;20539;-69
2023/07/19 00:46:15;;;;;;;1.33;0.70;;;22.50;61.80;;;;;;6217787;28;20108;-70
2023/07/19 00:49:17;;;;;;;0.60;0.60;;;22.50;61.90;;;;;;6218674;28;20060;-69
2023/07/19 00:52:18;;;;;;;0.75;0.73;;;22.50;61.90;;;;;;6218002;28;20029;-69
2023/07/19 00:55:19;;;;;;;0.65;0.40;;;22.50;61.90;;;;;;6217752;28;20049;-69
2023/07/19 00:58:22;;;;;;;0.73;0.70;;;22.50;61.90;;;;;;6217782;28;20029;-69
2023/07/19 01:01:23;;;;;;;0.65;0.65;;;22.50;61.90;;;;;;6217879;28;20041;-69
2023/07/19 01:04:27;;;;;;;1.00;0.73;;;22.50;61.90;;;;;;6217929;28;20439;-69
2023/07/19 01:07:29;;;;;;;1.25;0.85;;;22.50;61.90;;;;;;6218226;28;20103;-69
2023/07/19 01:10:31;;;;;;;0.50;0.50;;;22.50;61.90;;;;;;6217565;28;20029;-69
2023/07/19 01:13:31;;;;;;;1.15;0.73;;;22.50;61.90;;;;;;6217959;28;20072;-69
2023/07/19 01:16:32;;;;;;;0.70;0.60;;;22.50;61.90;;;;;;6217505;28;20034;-69
2023/07/19 01:19:32;;;;;;;1.08;0.60;;;22.50;61.90;;;;;;6217660;28;20415;-69
2023/07/19 01:22:33;;;;;;;1.50;0.85;;;22.50;61.90;;;;;;6216905;28;20156;-69
2023/07/19 01:25:34;;;;;;;0.60;0.55;;;22.50;61.90;;;;;;6218077;28;20380;-70
2023/07/19 01:28:34;;;;;;;0.75;0.60;;;22.50;61.90;;;;;;6217820;28;20534;-69
2023/07/19 01:31:35;;;;;;;1.02;0.60;;;22.50;61.90;;;;;;6217651;28;20378;-69
2023/07/19 01:34:35;;;;;;;0.70;0.70;;;22.50;61.90;;;;;;6217149;28;20028;-70
2023/07/19 01:37:36;;;;;;;1.00;0.73;;;22.50;61.90;;;;;;6217825;28;20022;-69
2023/07/19 01:40:37;;;;;;;1.10;0.90;;;22.50;61.90;;;;;;6221987;28;20038;-69
2023/07/19 01:43:37;;;;;;;1.15;0.88;;;22.50;62.00;;;;;;6221663;28;20030;-69
2023/07/19 01:46:39;;;;;;;0.60;0.60;;;22.50;61.90;;;;;;6197420;28;20018;-69
2023/07/19 01:49:40;;;;;;;1.00;0.77;;;22.50;61.90;;;;;;6205386;28;20026;-69
2023/07/19 01:52:41;;;;;;;1.60;0.90;;;22.50;61.90;;;;;;6221879;28;20030;-69
2023/07/19 01:55:42;;;;;;;0.80;0.70;;;22.50;61.90;;;;;;6221636;28;20087;-69
2023/07/19 01:58:42;;;;;;;0.88;0.70;;;22.50;62.00;;;;;;6221597;28;20065;-69
2023/07/19 02:01:43;;;;;;;0.80;0.80;;;22.50;61.90;;;;;;6221944;28;20381;-69
2023/07/19 02:04:44;;;;;;;0.70;0.70;;;22.50;62.00;;;;;;6221364;28;20116;-69
2023/07/19 02:07:45;;;;;;;1.17;0.70;;;22.50;62.00;;;;;;6221538;28;20018;-69
2023/07/19 02:10:45;;;;;;;0.88;0.70;;;22.50;62.00;;;;;;6221006;28;20385;-69
2023/07/19 02:13:46;;;;;;;0.70;0.70;;;22.50;62.00;;;;;;6219021;28;20116;-69
2023/07/19 02:16:46;;;;;;;0.82;0.70;;;22.50;62.00;;;;;;6220893;28;20177;-69
2023/07/19 02:19:47;;;;;;;0.80;0.70;;;22.50;62.00;;;;;;6221147;28;20376;-69
2023/07/19 02:22:48;;;;;;;1.17;0.77;;;22.50;62.00;;;;;;6221018;28;20504;-69
2023/07/19 02:25:49;;;;;;;1.02;0.68;;;22.50;62.00;;;;;;6220190;28;20022;-69
2023/07/19 02:28:50;;;;;;;1.10;0.82;;;22.50;62.00;;;;;;6221214;28;20036;-69
2023/07/19 02:31:52;;;;;;;0.80;0.70;;;22.50;62.00;;;;;;6220443;28;20030;-69
2023/07/19 02:34:53;;;;;;;1.08;0.57;;;22.50;62.00;;;;;;6216088;28;20029;-69
2023/07/19 02:37:53;;;;;;;1.13;0.90;;;22.50;62.00;;;;;;6220500;28;20535;-69
2023/07/19 02:41:01;;;;;;;0.70;0.70;;;22.50;62.10;;;;;;6220500;28;20073;-69
2023/07/19 02:44:02;;;;;;;0.70;0.60;;;22.50;62.00;;;;;;6220426;28;20083;-69
2023/07/19 02:47:02;;;;;;;1.00;0.65;;;22.50;62.00;;;;;;6220137;28;20431;-69
2023/07/19 02:50:03;;;;;;;0.98;0.70;;;22.50;62.00;;;;;;6219526;28;20392;-69
2023/07/19 02:53:04;;;;;;;0.95;0.60;;;22.50;62.00;;;;;;6220227;28;20080;-69
2023/07/19 02:56:04;;;;;;;0.88;0.65;;;22.50;62.00;;;;;;6219908;28;20042;-69
2023/07/19 02:59:05;;;;;;;1.40;0.98;;;22.50;62.00;;;;;;6220187;28;20372;-69
2023/07/19 03:02:06;;;;;;;0.75;0.65;;;22.50;62.00;;;;;;6219758;28;20038;-69
2023/07/19 03:05:07;;;;;;;1.30;0.95;;;22.50;62.00;;;;;;6202387;28;20246;-69
2023/07/19 03:08:09;;;;;;;2.25;0.57;;;22.50;62.00;;;;;;6219628;28;20100;-69
2023/07/19 03:11:09;;;;;;;1.05;0.90;;;22.50;62.00;;;;;;6220006;28;20018;-70
2023/07/19 03:14:10;;;;;;;0.93;0.77;;;22.50;62.10;;;;;;6219423;28;20022;-69
2023/07/19 03:17:11;;;;;;;0.95;0.80;;;22.50;62.00;;;;;;6219679;28;20038;-69
2023/07/19 03:20:12;;;;;;;0.90;0.80;;;22.50;62.00;;;;;;6219656;28;20430;-69
2023/07/19 03:23:12;;;;;;;1.60;0.90;;;22.50;62.00;;;;;;6218985;28;20050;-69
2023/07/19 03:26:13;;;;;;;0.90;0.70;;;22.50;62.00;;;;;;6219562;28;20022;-69
2023/07/19 03:29:14;;;;;;;0.65;0.65;;;22.50;62.00;;;;;;6201734;28;20105;-69
2023/07/19 03:32:14;;;;;;;1.02;0.80;;;22.50;62.10;;;;;;6219139;28;20037;-69
2023/07/19 03:35:15;;;;;;;0.85;0.77;;;22.50;62.10;;;;;;6219099;28;20415;-69
2023/07/19 03:38:18;;;;;;;0.93;0.77;;;22.50;62.10;;;;;;6218889;28;20149;-69
2023/07/19 03:41:18;;;;;;;1.27;0.77;;;22.50;62.10;;;;;;6218873;28;20032;-70
2023/07/19 03:44:19;;;;;;;0.60;0.60;;;22.50;62.10;;;;;;6218876;28;20384;-69
2023/07/19 03:47:20;;;;;;;1.08;0.77;;;22.50;62.00;;;;;;6218453;28;20033;-69
2023/07/19 03:50:20;;;;;;;0.80;0.80;;;22.50;62.20;;;;;;6219102;28;20018;-69
2023/07/19 03:53:21;;;;;;;0.52;0.50;;;22.50;62.10;;;;;;6218315;28;20029;-70
2023/07/19 03:56:22;;;;;;;1.05;0.80;;;22.50;62.10;;;;;;6215644;28;20022;-70
2023/07/19 04:03:20;;;;;;;0.88;0.82;;;22.50;62.10;;;;;;6219009;28;20113;-70
2023/07/19 04:06:21;;;;;;;1.00;0.75;;;22.50;62.20;;;;;;6218122;28;20388;-70
2023/07/19 04:09:21;;;;;;;0.90;0.60;;;22.50;62.10;;;;;;6218654;28;20156;-70
2023/07/19 04:12:22;;;;;;;0.77;0.70;;;22.50;62.10;;;;;;6218891;28;20026;-70
2023/07/19 04:15:23;;;;;;;0.70;0.60;;;22.50;62.10;;;;;;6217952;28;20029;-70
2023/07/19 04:18:24;;;;;;;0.80;0.73;;;22.50;62.10;;;;;;6218424;28;20489;-70
2023/07/19 04:21:24;;;;;;;1.10;0.80;;;22.50;62.20;;;;;;6218281;28;20095;-70
2023/07/19 04:24:25;;;;;;;1.00;0.50;;;22.50;62.20;;;;;;6218575;28;20083;-70
2023/07/19 04:27:25;;;;;;;0.70;0.70;;;22.50;62.10;;;;;;6218307;28;20049;-70
2023/07/19 04:30:26;;;;;;;1.15;0.80;;;22.50;62.10;;;;;;6218575;28;20105;-70
2023/07/19 04:33:27;;;;;;;0.60;0.60;;;22.50;62.10;;;;;;6218132;28;20029;-70
2023/07/19 04:36:27;;;;;;;1.08;0.73;;;22.50;62.10;;;;;;6218197;28;20038;-70
2023/07/19 04:39:28;;;;;;;0.90;0.70;;;22.50;62.20;;;;;;6218062;28;20229;-70
2023/07/19 04:42:28;;;;;;;0.70;0.60;;;22.50;62.20;;;;;;6218290;28;20083;-70
2023/07/19 04:45:30;;;;;;;1.65;0.90;;;22.50;62.20;;;;;;6218150;28;20018;-70
2023/07/19 04:48:30;;;;;;;0.90;0.70;;;22.50;62.20;;;;;;6218203;28;20388;-70
2023/07/19 04:51:31;;;;;;;0.73;0.73;;;22.50;62.20;;;;;;6216610;28;20037;-70
2023/07/19 04:54:32;;;;;;;0.98;0.88;;;22.50;62.20;;;;;;6200530;28;20076;-70
2023/07/19 04:57:33;;;;;;;0.90;0.77;;;22.50;62.10;;;;;;6217523;28;20029;-70
2023/07/19 05:00:33;;;;;;;0.93;0.73;;;22.50;62.10;;;;;;6217796;28;20116;-70
2023/07/19 05:03:35;;;;;;;1.05;0.80;;;22.50;62.20;;;;;;6209459;28;20050;-70
2023/07/19 05:06:36;;;;;;;0.70;0.60;;;22.50;62.20;;;;;;6218015;28;20121;-70
2023/07/19 05:09:36;;;;;;;0.90;0.70;;;22.50;62.20;;;;;;6218298;28;20400;-70
2023/07/19 05:12:37;;;;;;;0.95;0.80;;;22.50;62.20;;;;;;6217563;28;20111;-70
2023/07/19 05:15:38;;;;;;;1.00;0.70;;;22.50;62.20;;;;;;6215813;28;20045;-69
2023/07/19 05:18:38;;;;;;;0.73;0.73;;;22.50;62.20;;;;;;6212637;28;20036;-70
2023/07/19 05:21:39;;;;;;;1.65;1.00;;;22.50;62.20;;;;;;6220471;28;20419;-70
2023/07/19 05:24:40;;;;;;;1.00;0.80;;;22.50;62.20;;;;;;6223661;28;20034;-70
2023/07/19 05:27:41;;;;;;;0.80;0.65;;;22.50;62.20;;;;;;6221049;28;20384;-70
2023/07/19 05:30:41;;;;;;;0.90;0.77;;;22.50;62.20;;;;;;6221751;28;20022;-70
2023/07/19 05:33:42;;;;;;;1.00;0.90;;;22.50;62.20;;;;;;6215242;28;20022;-70
2023/07/19 05:36:42;;;;;;;1.10;0.73;;;22.50;62.20;;;;;;6221015;28;20033;-70
2023/07/19 05:39:43;;;;;;;0.75;0.70;;;22.50;62.20;;;;;;6221910;28;20018;-70
2023/07/19 05:42:43;;;;;;;0.80;0.75;;;22.50;62.20;;;;;;6220992;28;20472;-69
2023/07/19 05:45:44;;;;;;;1.05;0.88;;;22.50;62.20;;;;;;6221281;28;20025;-70
2023/07/19 05:48:45;;;;;;;0.70;0.70;;;22.50;62.10;;;;;;6221826;28;20079;-70
2023/07/19 05:51:46;;;;;;;1.33;0.73;;;22.50;62.10;;;;;;6221479;28;20076;-70
2023/07/19 05:54:47;;;;;;;0.82;0.73;;;22.50;62.20;;;;;;6221373;28;20065;-69
2023/07/19 05:57:48;;;;;;;1.58;0.90;;;22.50;62.10;;;;;;6221666;28;20476;-69
2023/07/19 06:00:49;;;;;;;1.52;0.90;;;22.50;62.00;;;;;;6215304;28;20392;-70
2023/07/19 06:03:49;;;;;;;0.90;0.75;;;22.50;62.00;;;;;;6222602;28;20289;-70
2023/07/19 06:06:50;;;;;;;0.82;0.70;;;22.50;62.00;;;;;;6216390;28;20026;-70
2023/07/19 06:09:50;;;;;;;0.98;0.70;;;22.50;62.00;;;;;;6223381;28;20524;-70
2023/07/19 06:12:51;;;;;;;0.95;0.75;;;22.50;62.00;;;;;;6223061;28;20036;-70
2023/07/19 06:15:52;;;;;;;1.17;0.70;;;22.50;62.00;;;;;;6222909;28;20499;-70
2023/07/19 06:18:53;;;;;;;1.02;0.80;;;22.50;62.00;;;;;;6223318;28;20320;-69
2023/07/19 06:21:53;;;;;;;0.98;0.80;;;22.50;62.00;;;;;;6222414;28;20053;-70
2023/07/19 06:24:54;;;;;;;0.98;0.70;;;22.50;62.00;;;;;;6221493;28;20077;-70
2023/07/19 06:27:55;;;;;;;1.35;0.80;;;22.50;62.00;;;;;;6204940;28;20021;-70
2023/07/19 06:30:58;;;;;;;1.05;0.80;;;22.50;61.90;;;;;;6222798;28;20025;-69
2023/07/19 06:33:59;;;;;;;1.30;0.82;;;22.50;61.90;;;;;;6221613;28;20484;-70
2023/07/19 06:37:00;;;;;;;0.85;0.82;;;22.50;61.90;;;;;;6219036;28;20040;-70
2023/07/19 06:40:03;;;;;;;1.23;1.05;;;22.50;61.90;;;;;;6223661;28;20609;-69
2023/07/19 06:43:06;;;;;;;1.45;0.80;;;22.50;61.90;;;;;;6222102;28;20022;-69
2023/07/19 06:46:06;;;;;;;1.35;0.82;;;22.50;61.90;;;;;;6220234;28;20037;-70
2023/07/19 06:49:07;;;;;;;1.02;0.82;;;22.50;61.90;;;;;;6222462;28;20033;-70
2023/07/19 06:52:08;;;;;;;1.15;0.77;;;22.50;61.90;;;;;;6215497;28;20066;-69
2023/07/19 06:55:09;;;;;;;1.40;0.88;;;22.50;61.90;;;;;;6220712;28;20088;-69
2023/07/19 06:58:09;;;;;;;0.88;0.80;;;22.50;61.90;;;;;;6221166;28;20104;-70
2023/07/19 07:01:10;;;;;;;0.98;0.70;;;22.50;61.90;;;;;;6222322;28;20018;-69
2023/07/19 07:04:11;;;;;;;0.70;0.63;;;22.50;61.90;;;;;;6220369;28;20504;-70
2023/07/19 07:07:14;;;;;;;1.05;0.73;;;22.50;61.90;;;;;;6221276;28;20057;-70
2023/07/19 07:10:15;;;;;;;1.63;0.90;;;22.50;62.40;;;;;;6221568;28;20061;-70
2023/07/19 07:13:16;;;;;;;1.92;0.73;;;22.50;62.00;;;;;;6221171;28;20032;-70
2023/07/19 07:16:16;;;;;;;0.77;0.73;;;22.50;62.90;;;;;;6219957;28;20064;-69
2023/07/19 07:19:17;;;;;;;0.90;0.75;;;22.50;62.00;;;;;;6221240;28;20099;-70
2023/07/19 07:22:19;;;;;;;1.42;0.80;;;22.50;62.00;;;;;;6220473;28;20065;-70
2023/07/19 07:25:19;;;;;;;0.70;0.60;;;22.50;62.00;;;;;;6219067;28;20038;-69
2023/07/19 07:28:20;;;;;;;0.82;0.73;;;22.50;62.00;;;;;;6220661;28;20084;-70
2023/07/19 07:31:21;;;;;;;0.95;0.80;;;22.50;62.00;;;;;;6215269;28;20392;-70
2023/07/19 07:34:21;;;;;;;1.45;0.85;;;22.50;62.00;;;;;;6244503;28;20025;-70
2023/07/19 07:37:22;;;;;;;1.05;0.75;;;22.50;62.00;;;;;;6219417;28;20048;-70
2023/07/19 07:40:22;;;;;;;0.98;0.75;;;22.50;62.00;;;;;;6223932;28;20100;-70
2023/07/19 07:43:23;;;;;;;1.23;1.00;;;22.50;62.00;;;;;;6245203;28;20083;-70
2023/07/19 07:46:24;;;;;;;0.98;0.73;;;22.50;62.00;;;;;;6229804;28;20451;-70
2023/07/19 07:49:25;;;;;;;1.05;0.95;;;22.50;61.90;;;;;;6220209;28;20224;-69
2023/07/19 07:52:25;;;;;;;1.55;1.00;;;22.50;62.00;;;;;;6239498;28;20025;-69
2023/07/19 07:55:26;;;;;;;1.02;0.70;;;22.50;62.00;;;;;;6238490;28;20026;-70
2023/07/19 07:58:27;;;;;;;1.05;0.82;;;22.50;62.90;;;;;;6220169;28;20364;-69
2023/07/19 08:01:27;;;;;;;1.00;0.80;;;22.50;62.00;;;;;;6229684;28;20091;-69
2023/07/19 08:04:28;;;;;;;1.00;0.90;;;22.50;62.00;;;;;;6244214;28;20355;-70
2023/07/19 08:07:28;;;;;;;3.83;0.90;;;22.50;62.00;;;;;;6218597;28;20037;-70
2023/07/19 08:10:29;;;;;;;2.22;0.93;;;22.50;62.00;;;;;;6221423;28;20306;-70
2023/07/19 08:13:30;;;;;;;1.67;0.88;;;22.50;62.00;;;;;;6219972;28;20037;-70
2023/07/19 08:16:30;;;;;;;0.90;0.70;;;22.50;62.00;;;;;;6227687;28;20500;-70
2023/07/19 08:19:31;;;;;;;2.42;1.20;;;22.50;62.00;;;;;;6244066;28;20536;-70
2023/07/19 08:22:33;;;;;;;0.82;0.70;;;22.50;62.00;;;;;;6224573;28;20050;-70
2023/07/19 08:25:34;;;;;;;1.20;0.80;;;22.50;62.00;;;;;;6215333;28;20079;-70
2023/07/19 08:28:35;;;;;;;1.58;0.80;;;22.50;62.00;;;;;;6243873;28;20442;-70
2023/07/19 08:31:36;;;;;;;1.00;0.85;;;22.50;62.00;;;;;;6233418;28;20484;-69
2023/07/19 08:34:36;;;;;;;1.15;0.80;;;22.50;62.00;;;;;;6219572;28;20049;-69
2023/07/19 08:37:37;;;;;;;1.63;1.00;;;22.50;62.00;;;;;;6233748;28;20038;-69
2023/07/19 08:40:38;;;;;;;2.10;1.20;;;22.50;62.00;;;;;;6242818;28;20026;-70
2023/07/19 08:43:41;;;;;;;1.08;0.90;;;22.50;62.00;;;;;;6218799;28;20061;-70
2023/07/19 08:46:43;;;;;;;1.90;0.70;;;22.50;62.00;;;;;;6225322;28;20357;-70
2023/07/19 08:49:46;;;;;;;0.88;0.73;;;22.50;62.00;;;;;;6249078;28;20025;-69
2023/07/19 08:52:47;;;;;;;1.48;0.95;;;22.50;62.00;;;;;;6232141;28;20018;-70
2023/07/19 08:55:48;;;;;;;0.75;0.63;;;22.50;62.00;;;;;;6224414;28;20029;-70
2023/07/19 08:58:49;;;;;;;1.10;0.90;;;22.50;62.00;;;;;;6246071;28;20026;-70
2023/07/19 09:01:50;;;;;;;1.25;0.80;;;22.50;62.00;;;;;;6240199;28;20444;-69
2023/07/19 09:05:04;;;;;;;0.80;0.70;;;22.50;62.00;;;;;;6224030;28;20030;-70
2023/07/19 09:08:05;;;;;;;1.13;0.80;;;22.50;62.00;;;;;;6232072;28;20018;-69
2023/07/19 09:11:06;;;;;;;1.58;0.90;;;22.50;62.00;;;;;;6224233;28;20319;-70
2023/07/19 09:14:07;;;;;;;1.05;0.80;;;22.50;62.00;;;;;;6223819;28;20037;-69
2023/07/19 09:17:08;;;;;;;1.95;0.93;;;22.50;62.00;;;;;;6236596;28;20500;-70
2023/07/19 09:20:09;;;;;;;0.98;0.75;;;22.50;62.00;;;;;;6223613;28;20029;-70
2023/07/19 09:23:10;;;;;;;1.50;0.90;;;22.50;62.00;;;;;;6235173;28;20107;-70
2023/07/19 09:26:11;;;;;;;1.20;0.90;;;22.50;62.00;;;;;;6248003;28;20033;-70
2023/07/19 09:29:11;;;;;;;0.93;0.75;;;22.50;62.00;;;;;;6223745;28;20029;-69
2023/07/19 09:32:15;;;;;;;1.80;1.10;;;22.50;62.00;;;;;;6215399;28;20373;-70
2023/07/19 09:35:28;;;;;;;1.95;1.20;;;22.50;62.00;;;;;;6223439;28;20050;-70
2023/07/19 09:38:29;;;;;;;1.67;1.13;;;22.50;62.00;;;;;;6234407;28;20030;-69
2023/07/19 09:41:30;;;;;;;1.42;1.00;;;22.50;62.00;;;;;;6247230;28;20475;-69
2023/07/19 09:44:32;;;;;;;1.38;0.90;;;22.50;62.00;;;;;;6223042;28;20022;-69
2023/07/19 09:47:37;;;;;;;1.17;0.93;;;22.50;62.00;;;;;;6225123;28;20030;-69
2023/07/19 09:50:41;;;;;;;1.13;0.80;;;22.50;62.00;;;;;;6247818;28;20409;-70
2023/07/19 09:53:43;;;;;;;1.27;0.70;;;22.50;62.00;;;;;;6230332;28;20763;-70
2023/07/19 09:56:44;;;;;;;1.05;0.80;;;22.50;62.00;;;;;;6222191;28;20049;-70
2023/07/19 09:59:47;;;;;;;1.17;0.90;;;22.50;62.00;;;;;;6240811;28;20395;-69
2023/07/19 10:02:47;;;;;;;1.55;0.88;;;22.50;62.00;;;;;;6238872;28;20492;-70
2023/07/19 10:05:56;;;;;;;1.85;1.00;;;22.50;62.00;;;;;;6222556;28;20049;-70
2023/07/19 10:09:22;;;;;;;0.75;0.75;;;22.50;62.00;;;;;;6233720;28;20434;-70
2023/07/19 10:12:24;;;;;;;1.45;0.90;;;22.50;62.00;;;;;;6224228;28;20040;-70
2023/07/19 10:15:26;;;;;;;1.27;0.85;;;22.50;62.00;;;;;;6222168;28;20029;-70
2023/07/19 10:18:29;;;;;;;0.80;0.80;;;22.50;62.00;;;;;;6228184;28;20028;-70
2023/07/19 10:21:30;;;;;;;0.93;0.80;;;22.50;62.00;;;;;;6246017;28;20091;-70
2023/07/19 10:24:36;;;;;;;2.35;1.08;;;22.50;62.00;;;;;;6227845;28;20029;-70
2023/07/19 10:27:37;;;;;;;1.17;0.80;;;22.50;62.00;;;;;;6221471;28;20030;-70
2023/07/19 10:30:44;;;;;;;1.08;0.88;;;22.50;62.00;;;;;;6244341;28;20033;-70
2023/07/19 10:33:44;;;;;;;1.10;0.93;;;22.50;62.00;;;;;;6235254;28;20045;-69
2023/07/19 10:36:48;;;;;;;1.15;1.00;;;22.50;62.00;;;;;;6221854;28;20041;-70
2023/07/19 10:39:48;;;;;;;0.82;0.70;;;22.50;62.00;;;;;;6236533;28;20037;-70
2023/07/19 10:42:49;;;;;;;1.42;0.70;;;22.50;62.00;;;;;;6243870;28;20032;-70
2023/07/19 10:45:52;;;;;;;1.15;0.93;;;22.50;62.00;;;;;;6221341;28;20416;-70
2023/07/19 10:48:53;;;;;;;1.33;1.00;;;22.50;62.00;;;;;;6201862;28;21619;-70
2023/07/19 10:51:55;;;;;;;1.20;0.90;;;22.50;62.00;;;;;;6218854;28;20105;-70
2023/07/19 10:54:56;;;;;;;1.42;0.93;;;22.50;62.00;;;;;;6234635;28;20028;-70
2023/07/19 10:57:56;;;;;;;0.90;0.73;;;22.50;62.00;;;;;;6243256;28;20029;-70
2023/07/19 11:00:57;;;;;;;1.10;0.70;;;22.50;62.00;;;;;;6220941;28;20030;-69
2023/07/19 11:04:03;;;;;;;1.13;0.90;;;22.50;62.00;;;;;;6225123;28;20029;-69
2023/07/19 11:07:05;;;;;;;1.45;0.90;;;22.50;62.00;;;;;;6238606;28;20060;-70
2023/07/19 11:10:06;;;;;;;1.23;1.10;;;22.50;62.00;;;;;;6220299;28;20064;-70
2023/07/19 11:13:08;;;;;;;0.65;0.57;;;22.50;62.00;;;;;;6241681;28;20026;-69
2023/07/19 11:16:10;;;;;;;0.68;0.60;;;22.50;61.90;;;;;;6239310;28;20053;-70
2023/07/19 11:19:11;;;;;;;0.57;0.57;;;22.50;62.00;;;;;;6220616;28;20116;-70
2023/07/19 11:22:11;;;;;;;1.02;0.82;;;22.50;62.00;;;;;;6220365;28;20054;-70
2023/07/19 11:25:12;;;;;;;1.00;0.80;;;22.50;61.90;;;;;;6232722;28;20061;-70
2023/07/19 11:28:13;;;;;;;1.08;0.70;;;22.50;61.90;;;;;;6245316;28;20064;-69
2023/07/19 11:31:31;;;;;;;1.10;0.80;;;22.50;61.90;;;;;;6220412;28;20034;-70
2023/07/19 11:34:56;;;;;;;1.15;0.70;;;22.50;62.00;;;;;;6340372;27;20392;-68
2023/07/19 11:37:56;;;;;;;0.98;0.88;;;22.50;61.90;;;;;;6314692;28;20079;-68
2023/07/19 11:40:58;;;;;;;0.77;0.70;;;22.50;61.90;;;;;;6313824;28;20032;-68
2023/07/19 11:43:59;;;;;;;1.10;0.80;;;22.50;61.90;;;;;;6314832;28;20496;-69
2023/07/19 11:47:00;;;;;;;1.00;0.80;;;22.50;62.00;;;;;;6315195;28;20031;-68
2023/07/19 11:50:00;;;;;;;1.25;0.85;;;22.50;62.00;;;;;;6314404;28;20039;-68
2023/07/19 11:53:03;;;;;;;1.13;0.80;;;22.50;61.90;;;;;;6314721;28;20037;-66
2023/07/19 11:56:04;;;;;;;0.63;0.63;;;22.50;61.90;;;;;;6316597;28;20404;-67
2023/07/19 11:59:04;;;;;;;1.10;0.80;;;22.50;61.90;;;;;;6316263;28;20028;-67
2023/07/19 12:02:06;;;;;;;0.95;0.65;;;22.50;61.90;;;;;;6313762;28;20036;-68
2023/07/19 12:05:07;;;;;;;0.65;0.65;;;22.50;62.00;;;;;;6314387;28;20059;-68
2023/07/19 12:08:08;;;;;;;1.10;0.80;;;22.50;62.00;;;;;;6315573;28;20590;-68
2023/07/19 12:11:09;;;;;;;1.13;0.85;;;22.50;62.80;;;;;;6306587;28;20397;-68
2023/07/19 12:14:10;;;;;;;0.80;0.80;;;22.50;61.90;;;;;;6300870;28;20119;-68
2023/07/19 12:17:10;;;;;;;1.20;0.80;;;22.50;61.90;;;;;;6315500;28;20039;-68
2023/07/19 12:20:12;;;;;;;0.60;0.60;;;22.50;62.00;;;;;;6315314;28;20115;-67
2023/07/19 12:23:12;;;;;;;0.90;0.60;;;22.50;61.90;;;;;;6315647;28;20016;-68
2023/07/19 12:26:13;;;;;;;1.02;0.75;;;22.50;62.00;;;;;;6313647;28;20020;-68
2023/07/19 12:29:14;;;;;;;0.90;0.70;;;22.50;61.90;;;;;;6315611;28;20055;-68
2023/07/19 12:32:15;;;;;;;1.13;0.63;;;22.50;61.90;;;;;;6314879;28;20048;-68
2023/07/19 12:35:15;;;;;;;0.77;0.68;;;22.50;61.90;;;;;;6315190;28;20020;-67
2023/07/19 12:38:17;;;;;;;1.67;0.68;;;22.50;61.90;;;;;;6315383;28;20107;-68
2023/07/19 12:41:19;;;;;;;0.90;0.70;;;22.50;62.00;;;;;;6315847;28;20096;-69
2023/07/19 12:44:20;;;;;;;1.05;0.90;;;22.50;61.90;;;;;;6308536;28;20025;-67
2023/07/19 12:47:21;;;;;;;0.88;0.70;;;22.50;62.00;;;;;;6299640;28;20046;-67
2023/07/19 12:50:22;;;;;;;0.95;0.80;;;22.50;61.90;;;;;;6299125;28;20032;-68
2023/07/19 12:53:23;;;;;;;1.33;0.90;;;22.50;61.90;;;;;;6299012;28;20024;-68
2023/07/19 12:56:24;;;;;;;0.90;0.73;;;22.50;61.90;;;;;;6297922;28;20021;-69
2023/07/19 12:59:25;;;;;;;0.93;0.80;;;22.50;61.90;;;;;;6299547;28;20029;-68
2023/07/19 13:02:25;;;;;;;1.38;0.70;;;22.50;61.90;;;;;;6298570;28;20066;-68
2023/07/19 13:05:26;;;;;;;1.42;0.80;;;22.50;61.90;;;;;;6298883;28;20067;-68
2023/07/19 13:08:27;;;;;;;0.93;0.73;;;22.50;61.90;;;;;;6298753;28;20033;-68
2023/07/19 13:11:28;;;;;;;1.30;0.90;;;22.50;61.90;;;;;;6292833;28;20020;-69
2023/07/19 13:14:28;;;;;;;1.17;0.80;;;22.50;61.90;;;;;;6298395;28;20047;-68
2023/07/19 13:17:29;;;;;;;1.30;0.82;;;22.50;61.90;;;;;;6298398;28;20107;-68
2023/07/19 13:20:30;;;;;;;1.08;0.98;;;22.50;61.90;;;;;;6297786;28;20462;-68
2023/07/19 13:23:30;;;;;;;3.42;1.15;;;22.50;61.90;;;;;;6297041;28;20028;-69
2023/07/19 13:26:32;;;;;;;1.55;1.00;;;22.50;61.90;;;;;;6298159;28;20040;-68
2023/07/19 13:29:33;;;;;;;0.95;0.80;;;22.50;61.90;;;;;;6298289;28;20020;-68
2023/07/19 13:32:33;;;;;;;1.48;0.82;;;22.50;61.80;;;;;;6297918;28;20052;-68
2023/07/19 13:35:34;;;;;;;1.50;0.85;;;22.50;61.90;;;;;;6296474;28;20056;-70
2023/07/19 13:38:35;;;;;;;0.82;0.77;;;22.50;61.90;;;;;;6291441;28;20119;-70
2023/07/19 13:41:39;;;;;;;1.27;0.93;;;22.50;61.90;;;;;;6296517;28;20082;-70
2023/07/19 13:44:39;;;;;;;1.55;0.80;;;22.50;61.90;;;;;;6297158;28;20028;-70
2023/07/19 13:47:40;;;;;;;0.98;0.73;;;22.50;61.90;;;;;;6295923;28;20309;-68
2023/07/19 13:50:41;;;;;;;1.27;0.80;;;22.50;61.90;;;;;;6296135;28;20036;-67
2023/07/19 13:53:42;;;;;;;0.98;0.77;;;22.50;61.90;;;;;;6295382;28;20024;-68
2023/07/19 13:56:43;;;;;;;1.83;1.05;;;22.50;61.80;;;;;;6294963;28;20066;-68
2023/07/19 13:59:44;;;;;;;1.05;0.80;;;22.50;61.80;;;;;;6294130;28;20025;-68
2023/07/19 14:02:45;;;;;;;1.30;0.93;;;22.50;61.90;;;;;;6295518;28;20069;-67
2023/07/19 14:05:46;;;;;;;1.10;0.80;;;22.50;61.80;;;;;;6295571;28;20056;-67
2023/07/19 14:08:46;;;;;;;0.93;0.63;;;22.50;61.90;;;;;;6295487;28;20047;-68
2023/07/19 14:11:48;;;;;;;1.08;0.85;;;22.50;61.80;;;;;;6296454;28;20532;-67
2023/07/19 14:14:49;;;;;;;1.27;0.90;;;22.50;61.80;;;;;;6296220;28;20559;-68
2023/07/19 14:17:50;;;;;;;1.60;1.15;;;22.50;61.80;;;;;;6296323;28;20077;-68
2023/07/19 14:20:52;;;;;;;1.33;0.90;;;22.50;61.80;;;;;;6296319;28;20473;-68
2023/07/19 14:23:52;;;;;;;1.15;0.70;;;22.50;61.80;;;;;;6295299;28;20024;-67
2023/07/19 14:26:53;;;;;;;1.25;1.10;;;22.50;62.70;;;;;;6294933;28;20042;-67
2023/07/19 14:29:54;;;;;;;1.08;0.80;;;22.50;61.80;;;;;;6296270;28;20445;-67
2023/07/19 14:32:54;;;;;;;1.25;0.90;;;22.50;61.80;;;;;;6293467;28;20481;-68
2023/07/19 14:35:55;;;;;;;1.23;0.95;;;22.50;61.80;;;;;;6294185;28;20025;-68
2023/07/19 14:38:56;;;;;;;1.25;0.80;;;22.50;61.80;;;;;;6294310;28;20016;-68
2023/07/19 14:41:57;;;;;;;0.82;0.80;;;22.50;61.80;;;;;;6292890;28;20520;-68
2023/07/19 14:44:59;;;;;;;1.65;0.80;;;22.50;61.80;;;;;;6294087;28;20295;-68
2023/07/19 14:47:59;;;;;;;1.55;1.00;;;22.50;61.80;;;;;;6293009;28;20021;-68
2023/07/19 14:51:00;;;;;;;1.00;0.70;;;22.50;61.80;;;;;;6293428;28;20404;-68
2023/07/19 14:54:03;;;;;;;1.33;0.70;;;22.50;61.80;;;;;;6292862;28;20424;-68
2023/07/19 14:57:04;;;;;;;1.08;0.60;;;22.50;61.80;;;;;;6283084;28;20020;-68
2023/07/19 15:00:09;;;;;;;1.52;0.82;;;22.50;61.80;;;;;;6292963;28;20469;-68
2023/07/19 15:03:10;;;;;;;0.77;0.60;;;22.50;61.80;;;;;;6293597;28;20477;-73
2023/07/19 15:06:10;;;;;;;1.27;0.95;;;22.50;61.90;;;;;;6294793;28;20032;-73
2023/07/19 15:09:11;;;;;;;1.27;1.00;;;22.50;61.80;;;;;;6292437;28;20477;-73
2023/07/19 15:12:12;;;;;;;1.55;0.80;;;22.50;61.80;;;;;;6275488;28;20060;-73
2023/07/19 15:15:13;;;;;;;1.20;0.98;;;22.50;61.90;;;;;;6284925;28;20436;-73
2023/07/19 15:18:15;;;;;;;2.40;0.80;;;22.50;61.90;;;;;;6279035;28;20042;-72
2023/07/19 15:21:16;;;;;;;0.90;0.70;;;22.50;61.90;;;;;;6289078;28;20492;-73
2023/07/19 15:24:17;;;;;;;0.73;0.70;;;22.50;61.90;;;;;;6291043;28;20020;-73
2023/07/19 15:27:18;;;;;;;1.00;0.80;;;22.50;61.90;;;;;;6292745;28;20059;-73
2023/07/19 15:30:19;;;;;;;1.23;1.00;;;22.50;61.90;;;;;;6292772;28;20059;-73
2023/07/19 15:33:20;;;;;;;1.30;0.73;;;22.50;61.90;;;;;;6291775;28;20052;-71
2023/07/19 15:36:22;;;;;;;0.82;0.70;;;22.50;61.90;;;;;;6293257;28;20024;-71
2023/07/19 15:39:23;;;;;;;1.65;0.85;;;22.50;61.90;;;;;;6293104;28;20016;-71
2023/07/19 15:42:24;;;;;;;0.82;0.80;;;22.50;61.90;;;;;;6292834;28;20089;-71
2023/07/19 15:45:25;;;;;;;1.10;0.60;;;22.50;61.90;;;;;;6291947;28;20036;-70
2023/07/19 15:48:26;;;;;;;1.25;0.80;;;22.50;62.00;;;;;;6292434;28;20024;-70